RTW104 VNKT-OING
Flight info
| Callsign | RTW104 |
|---|---|
| Flight time | 4h 22m |
| Altitude | 32000 |
| Route | DARKE1H MANKA Q319 TULVI Q650 SUKET L626 HW W85 SP M890 CHG W36 LAKET M890 SULOM A466 LEBIB/N0465F340 A466 DI J145 REGET N644 LEMOD A909 NINOP A125 ASB B114 RIKOP L720 BRD A414 ALNIT |
| Aircraft | B739/M-SDE2E3FGHIRWXY/LB1 |
Departure
| Time | 2026-04-19 05:30 |
|---|---|
| Airport | Tribhuvan International Airport (VNKT) |
Arrival
| Time | 2026-04-19 09:53 |
|---|---|
| Airport | Gorgan Airport (OING) |
| Time | Latitude | Longitude | Altitude | Speed | Heading |
|---|---|---|---|---|---|
| 2026-04-19 05:18 | 27.70034 | 85.35854 | 4372 ft | 0 kts | 291° |
| 2026-04-19 05:25 | 27.70031 | 85.35863 | 4358 ft | 2 kts | 292° |
| 2026-04-19 05:26 | 27.70025 | 85.35880 | 4364 ft | 2 kts | 292° |
| 2026-04-19 05:26 | 27.70019 | 85.35897 | 4359 ft | 2 kts | 292° |
| 2026-04-19 05:26 | 27.70013 | 85.35913 | 4363 ft | 2 kts | 293° |
| 2026-04-19 05:26 | 27.70006 | 85.35930 | 4357 ft | 2 kts | 293° |
| 2026-04-19 05:27 | 27.70000 | 85.35947 | 4369 ft | 2 kts | 293° |
| 2026-04-19 05:27 | 27.69996 | 85.35957 | 4357 ft | 0 kts | 299° |
| 2026-04-19 05:27 | 27.69997 | 85.35957 | 4358 ft | 1 kts | 299° |
| 2026-04-19 05:27 | 27.70012 | 85.35957 | 4354 ft | 6 kts | 13° |
| 2026-04-19 05:28 | 27.70091 | 85.35989 | 4370 ft | 18 kts | 22° |
| 2026-04-19 05:28 | 27.70245 | 85.36060 | 4380 ft | 27 kts | 22° |
| 2026-04-19 05:28 | 27.70416 | 85.36137 | 4383 ft | 26 kts | 22° |
| 2026-04-19 05:28 | 27.70566 | 85.36229 | 4391 ft | 24 kts | 51° |
| 2026-04-19 05:29 | 27.70564 | 85.36306 | 4393 ft | 9 kts | 158° |
| 2026-04-19 05:29 | 27.70420 | 85.36261 | 4389 ft | 48 kts | 201° |
| 2026-04-19 05:29 | 27.69908 | 85.36031 | 4405 ft | 109 kts | 201° |
| 2026-04-19 05:29 | 27.69042 | 85.35640 | 4375 ft | 158 kts | 202° |
| 2026-04-19 05:30 | 27.67901 | 85.35107 | 4378 ft | 193 kts | 201° |
| 2026-04-19 05:30 | 27.66628 | 85.34581 | 4925 ft | 191 kts | 200° |
| 2026-04-19 05:30 | 27.65541 | 85.33677 | 5252 ft | 202 kts | 237° |
| 2026-04-19 05:30 | 27.65014 | 85.32205 | 5666 ft | 211 kts | 256° |
| 2026-04-19 05:31 | 27.64888 | 85.30521 | 6035 ft | 220 kts | 279° |
| 2026-04-19 05:31 | 27.65443 | 85.28916 | 6411 ft | 222 kts | 303° |
| 2026-04-19 05:31 | 27.66378 | 85.27476 | 6784 ft | 234 kts | 305° |
| 2026-04-19 05:31 | 27.67358 | 85.25937 | 7155 ft | 249 kts | 304° |
| 2026-04-19 05:32 | 27.68395 | 85.24293 | 7512 ft | 266 kts | 304° |
| 2026-04-19 05:32 | 27.69121 | 85.23139 | 7734 ft | 280 kts | 304° |
| 2026-04-19 05:32 | 27.70258 | 85.21266 | 8142 ft | 299 kts | 301° |
| 2026-04-19 05:32 | 27.71281 | 85.19132 | 8544 ft | 319 kts | 294° |
| 2026-04-19 05:33 | 27.72167 | 85.16755 | 8948 ft | 338 kts | 291° |
| 2026-04-19 05:33 | 27.73084 | 85.14232 | 9336 ft | 357 kts | 292° |
| 2026-04-19 05:33 | 27.74064 | 85.11580 | 9729 ft | 374 kts | 292° |
| 2026-04-19 05:33 | 27.75117 | 85.08835 | 10103 ft | 389 kts | 294° |
| 2026-04-19 05:34 | 27.76290 | 85.06040 | 10631 ft | 396 kts | 295° |
| 2026-04-19 05:34 | 27.77503 | 85.03247 | 11373 ft | 394 kts | 296° |
| 2026-04-19 05:34 | 27.78713 | 85.00467 | 11875 ft | 393 kts | 296° |
| 2026-04-19 05:34 | 27.79924 | 84.97673 | 12503 ft | 398 kts | 295° |
| 2026-04-19 05:35 | 27.81141 | 84.94846 | 13100 ft | 402 kts | 295° |
| 2026-04-19 05:35 | 27.82364 | 84.91986 | 13733 ft | 406 kts | 295° |
| 2026-04-19 05:35 | 27.83578 | 84.89138 | 14308 ft | 408 kts | 295° |
| 2026-04-19 05:35 | 27.84811 | 84.86240 | 14897 ft | 410 kts | 295° |
| 2026-04-19 05:36 | 27.86050 | 84.83326 | 15458 ft | 412 kts | 295° |
| 2026-04-19 05:36 | 27.87290 | 84.80411 | 16056 ft | 411 kts | 295° |
| 2026-04-19 05:36 | 27.88531 | 84.77491 | 16654 ft | 411 kts | 295° |
| 2026-04-19 05:36 | 27.89766 | 84.74578 | 17284 ft | 411 kts | 295° |
| 2026-04-19 05:37 | 27.91001 | 84.71664 | 17909 ft | 410 kts | 295° |
| 2026-04-19 05:37 | 27.92229 | 84.68762 | 18497 ft | 409 kts | 295° |
| 2026-04-19 05:37 | 27.93455 | 84.65864 | 19045 ft | 406 kts | 295° |
| 2026-04-19 05:37 | 27.94657 | 84.63025 | 19609 ft | 404 kts | 295° |
| 2026-04-19 05:38 | 27.95865 | 84.60171 | 20185 ft | 401 kts | 295° |
| 2026-04-19 05:38 | 27.97063 | 84.57343 | 20770 ft | 397 kts | 295° |
| 2026-04-19 05:38 | 27.98265 | 84.54500 | 21378 ft | 393 kts | 294° |
| 2026-04-19 05:38 | 27.99436 | 84.51728 | 21991 ft | 388 kts | 294° |
| 2026-04-19 05:39 | 28.00577 | 84.49021 | 22605 ft | 383 kts | 294° |
| 2026-04-19 05:39 | 28.01690 | 84.46299 | 23249 ft | 378 kts | 292° |
| 2026-04-19 05:39 | 28.02727 | 84.43588 | 23808 ft | 372 kts | 291° |
| 2026-04-19 05:39 | 28.03724 | 84.40917 | 24371 ft | 364 kts | 291° |
| 2026-04-19 05:40 | 28.04701 | 84.38293 | 24922 ft | 357 kts | 291° |
| 2026-04-19 05:40 | 28.05659 | 84.35731 | 25471 ft | 350 kts | 291° |
| 2026-04-19 05:40 | 28.06600 | 84.33226 | 26042 ft | 341 kts | 291° |
| 2026-04-19 05:40 | 28.07530 | 84.30760 | 26364 ft | 343 kts | 291° |
| 2026-04-19 05:41 | 28.08471 | 84.28261 | 26562 ft | 346 kts | 291° |
| 2026-04-19 05:41 | 28.09421 | 84.25745 | 26771 ft | 349 kts | 291° |
| 2026-04-19 05:41 | 28.10380 | 84.23204 | 26971 ft | 353 kts | 291° |
| 2026-04-19 05:41 | 28.11349 | 84.20636 | 27174 ft | 356 kts | 291° |
| 2026-04-19 05:42 | 28.12327 | 84.18044 | 27391 ft | 359 kts | 291° |
| 2026-04-19 05:42 | 28.13299 | 84.15469 | 27593 ft | 362 kts | 291° |
| 2026-04-19 05:42 | 28.14292 | 84.12834 | 27803 ft | 365 kts | 291° |
| 2026-04-19 05:42 | 28.15291 | 84.10184 | 28018 ft | 367 kts | 291° |
| 2026-04-19 05:43 | 28.16297 | 84.07513 | 28227 ft | 370 kts | 290° |
| 2026-04-19 05:43 | 28.17312 | 84.04818 | 28439 ft | 372 kts | 290° |
| 2026-04-19 05:43 | 28.18328 | 84.02112 | 28654 ft | 374 kts | 290° |
| 2026-04-19 05:43 | 28.19319 | 83.99364 | 28864 ft | 375 kts | 284° |
| 2026-04-19 05:44 | 28.19760 | 83.96464 | 29063 ft | 374 kts | 269° |
| 2026-04-19 05:44 | 28.19682 | 83.93514 | 29304 ft | 375 kts | 266° |
| 2026-04-19 05:44 | 28.19514 | 83.90560 | 29518 ft | 377 kts | 265° |
| 2026-04-19 05:44 | 28.19324 | 83.87593 | 29730 ft | 378 kts | 265° |
| 2026-04-19 05:45 | 28.19135 | 83.84612 | 29924 ft | 381 kts | 265° |
| 2026-04-19 05:45 | 28.18952 | 83.81599 | 30133 ft | 383 kts | 265° |
| 2026-04-19 05:45 | 28.18778 | 83.78570 | 30299 ft | 386 kts | 265° |
| 2026-04-19 05:45 | 28.18610 | 83.75565 | 30477 ft | 387 kts | 266° |
| 2026-04-19 05:46 | 28.18444 | 83.72518 | 30673 ft | 388 kts | 265° |
| 2026-04-19 05:46 | 28.18279 | 83.69455 | 30835 ft | 389 kts | 265° |
| 2026-04-19 05:46 | 28.18114 | 83.66387 | 31046 ft | 389 kts | 265° |
| 2026-04-19 05:46 | 28.17949 | 83.63317 | 31231 ft | 391 kts | 266° |
| 2026-04-19 05:47 | 28.17783 | 83.60241 | 31412 ft | 391 kts | 265° |
| 2026-04-19 05:47 | 28.17617 | 83.57164 | 31595 ft | 390 kts | 265° |
| 2026-04-19 05:47 | 28.17448 | 83.54093 | 31805 ft | 390 kts | 265° |
| 2026-04-19 05:47 | 28.17282 | 83.51062 | 31914 ft | 391 kts | 265° |
| 2026-04-19 05:48 | 28.17113 | 83.47969 | 31913 ft | 394 kts | 265° |
| 2026-04-19 05:48 | 28.16769 | 83.41740 | 31922 ft | 398 kts | 265° |
| 2026-04-19 05:49 | 28.16419 | 83.35434 | 31915 ft | 403 kts | 265° |
| 2026-04-19 05:49 | 28.16060 | 83.29037 | 31911 ft | 409 kts | 265° |
| 2026-04-19 05:50 | 28.15693 | 83.22559 | 31909 ft | 414 kts | 265° |
| 2026-04-19 05:50 | 28.15319 | 83.15997 | 31903 ft | 419 kts | 265° |
| 2026-04-19 05:51 | 28.14940 | 83.09383 | 31905 ft | 423 kts | 265° |
| 2026-04-19 05:51 | 28.14557 | 83.02750 | 31901 ft | 426 kts | 265° |
| 2026-04-19 05:52 | 28.14194 | 82.96023 | 31897 ft | 430 kts | 266° |
| 2026-04-19 05:52 | 28.13906 | 82.89223 | 31894 ft | 433 kts | 266° |
| 2026-04-19 05:53 | 28.13620 | 82.82381 | 31872 ft | 436 kts | 266° |
| 2026-04-19 05:53 | 28.13319 | 82.75512 | 31876 ft | 437 kts | 266° |
| 2026-04-19 05:54 | 28.13014 | 82.68621 | 31879 ft | 440 kts | 266° |
| 2026-04-19 05:54 | 28.12700 | 82.61692 | 31871 ft | 440 kts | 266° |
| 2026-04-19 05:55 | 28.12387 | 82.54774 | 31862 ft | 440 kts | 266° |
| 2026-04-19 05:55 | 28.12072 | 82.47899 | 31852 ft | 440 kts | 266° |
| 2026-04-19 05:56 | 28.11753 | 82.40979 | 31858 ft | 440 kts | 266° |
| 2026-04-19 05:56 | 28.11433 | 82.34059 | 31845 ft | 440 kts | 268° |
| 2026-04-19 05:56 | 28.11768 | 82.30613 | 31849 ft | 442 kts | 282° |
| 2026-04-19 05:57 | 28.12813 | 82.27330 | 31826 ft | 447 kts | 294° |
| 2026-04-19 05:57 | 28.16506 | 82.21599 | 31843 ft | 453 kts | 306° |
| 2026-04-19 05:58 | 28.20580 | 82.16168 | 31846 ft | 454 kts | 306° |
| 2026-04-19 05:58 | 28.24678 | 82.10659 | 31844 ft | 455 kts | 306° |
| 2026-04-19 05:59 | 28.28719 | 82.05129 | 31838 ft | 455 kts | 305° |
| 2026-04-19 05:59 | 28.32727 | 81.99604 | 31838 ft | 456 kts | 305° |
| 2026-04-19 06:00 | 28.36760 | 81.94035 | 31842 ft | 456 kts | 305° |
| 2026-04-19 06:00 | 28.40776 | 81.88483 | 31836 ft | 456 kts | 305° |
| 2026-04-19 06:01 | 28.44827 | 81.82879 | 31836 ft | 456 kts | 305° |
| 2026-04-19 06:01 | 28.48848 | 81.77311 | 31845 ft | 456 kts | 305° |
| 2026-04-19 06:02 | 28.52857 | 81.71752 | 31842 ft | 456 kts | 305° |
| 2026-04-19 06:02 | 28.56881 | 81.66165 | 31841 ft | 456 kts | 305° |
| 2026-04-19 06:02 | 28.58717 | 81.63257 | 31831 ft | 450 kts | 294° |
| 2026-04-19 06:03 | 28.59855 | 81.59979 | 31852 ft | 444 kts | 283° |
| 2026-04-19 06:03 | 28.61548 | 81.53219 | 31844 ft | 444 kts | 283° |
| 2026-04-19 06:04 | 28.63181 | 81.46585 | 31829 ft | 445 kts | 283° |
| 2026-04-19 06:04 | 28.64915 | 81.39709 | 31824 ft | 445 kts | 283° |
| 2026-04-19 06:05 | 28.66648 | 81.32929 | 31817 ft | 446 kts | 283° |
| 2026-04-19 06:05 | 28.68385 | 81.26141 | 31807 ft | 446 kts | 283° |
| 2026-04-19 06:06 | 28.70114 | 81.19371 | 31809 ft | 445 kts | 283° |
| 2026-04-19 06:06 | 28.71839 | 81.12596 | 31806 ft | 446 kts | 283° |
| 2026-04-19 06:07 | 28.73562 | 81.05809 | 31806 ft | 446 kts | 283° |
| 2026-04-19 06:07 | 28.75280 | 80.99026 | 31814 ft | 445 kts | 283° |
| 2026-04-19 06:08 | 28.76996 | 80.92238 | 31813 ft | 445 kts | 283° |
| 2026-04-19 06:08 | 28.78707 | 80.85457 | 31808 ft | 445 kts | 283° |
| 2026-04-19 06:09 | 28.80414 | 80.78670 | 31815 ft | 445 kts | 283° |
| 2026-04-19 06:09 | 28.82106 | 80.71930 | 31816 ft | 445 kts | 283° |
| 2026-04-19 06:10 | 28.83808 | 80.65135 | 31813 ft | 445 kts | 283° |
| 2026-04-19 06:10 | 28.85504 | 80.58349 | 31819 ft | 445 kts | 283° |
| 2026-04-19 06:11 | 28.87196 | 80.51561 | 31812 ft | 445 kts | 283° |
| 2026-04-19 06:11 | 28.88883 | 80.44778 | 31815 ft | 444 kts | 283° |
| 2026-04-19 06:12 | 28.91409 | 80.34599 | 31808 ft | 444 kts | 283° |
| 2026-04-19 06:12 | 28.93085 | 80.27825 | 31808 ft | 443 kts | 283° |
| 2026-04-19 06:13 | 28.94748 | 80.21092 | 31801 ft | 443 kts | 283° |
| 2026-04-19 06:13 | 28.96392 | 80.14311 | 31804 ft | 442 kts | 279° |
| 2026-04-19 06:14 | 28.97232 | 80.07393 | 31809 ft | 439 kts | 274° |
| 2026-04-19 06:14 | 28.97843 | 80.00453 | 31798 ft | 439 kts | 274° |
| 2026-04-19 06:15 | 28.98501 | 79.93513 | 31800 ft | 439 kts | 274° |
| 2026-04-19 06:15 | 28.99194 | 79.86588 | 31799 ft | 439 kts | 274° |
| 2026-04-19 06:16 | 28.99894 | 79.79656 | 31803 ft | 439 kts | 274° |
| 2026-04-19 06:16 | 29.00590 | 79.72717 | 31802 ft | 439 kts | 274° |
| 2026-04-19 06:17 | 29.01276 | 79.65834 | 31804 ft | 439 kts | 274° |
| 2026-04-19 06:17 | 29.01965 | 79.58901 | 31803 ft | 439 kts | 274° |
| 2026-04-19 06:18 | 29.02653 | 79.51966 | 31804 ft | 439 kts | 276° |
| 2026-04-19 06:18 | 29.03452 | 79.48589 | 31812 ft | 444 kts | 289° |
| 2026-04-19 06:18 | 29.04935 | 79.45471 | 31785 ft | 451 kts | 302° |
| 2026-04-19 06:19 | 29.08526 | 79.41084 | 31805 ft | 457 kts | 310° |
| 2026-04-19 06:19 | 29.13142 | 79.36070 | 31806 ft | 458 kts | 311° |
| 2026-04-19 06:20 | 29.17760 | 79.31042 | 31808 ft | 458 kts | 311° |
| 2026-04-19 06:20 | 29.22348 | 79.25965 | 31811 ft | 458 kts | 310° |
| 2026-04-19 06:21 | 29.26913 | 79.20870 | 31806 ft | 459 kts | 310° |
| 2026-04-19 06:21 | 29.31454 | 79.15790 | 31805 ft | 459 kts | 310° |
| 2026-04-19 06:22 | 29.36004 | 79.10694 | 31812 ft | 459 kts | 310° |
| 2026-04-19 06:22 | 29.40586 | 79.05557 | 31812 ft | 459 kts | 310° |
| 2026-04-19 06:23 | 29.45150 | 79.00434 | 31816 ft | 458 kts | 310° |
| 2026-04-19 06:23 | 29.49711 | 78.95309 | 31824 ft | 458 kts | 310° |
| 2026-04-19 06:24 | 29.54270 | 78.90176 | 31819 ft | 459 kts | 310° |
| 2026-04-19 06:24 | 29.58832 | 78.85035 | 31830 ft | 459 kts | 310° |
| 2026-04-19 06:25 | 29.63358 | 78.79927 | 31831 ft | 459 kts | 310° |
| 2026-04-19 06:25 | 29.67916 | 78.74778 | 31827 ft | 459 kts | 310° |
| 2026-04-19 06:26 | 29.72461 | 78.69636 | 31824 ft | 457 kts | 310° |
| 2026-04-19 06:26 | 29.76983 | 78.64514 | 31839 ft | 456 kts | 310° |
| 2026-04-19 06:27 | 29.81515 | 78.59370 | 31842 ft | 458 kts | 310° |
| 2026-04-19 06:27 | 29.86030 | 78.54240 | 31843 ft | 459 kts | 309° |
| 2026-04-19 06:28 | 29.90579 | 78.49063 | 31837 ft | 460 kts | 309° |
| 2026-04-19 06:28 | 29.95138 | 78.43872 | 31839 ft | 461 kts | 309° |
| 2026-04-19 06:29 | 29.99705 | 78.38663 | 31830 ft | 461 kts | 309° |
| 2026-04-19 06:29 | 30.04268 | 78.33453 | 31839 ft | 462 kts | 309° |
| 2026-04-19 06:30 | 30.08839 | 78.28228 | 31842 ft | 463 kts | 309° |
| 2026-04-19 06:30 | 30.13391 | 78.23016 | 31840 ft | 463 kts | 309° |
| 2026-04-19 06:31 | 30.15474 | 78.20217 | 31824 ft | 453 kts | 296° |
| 2026-04-19 06:31 | 30.16746 | 78.16955 | 31851 ft | 442 kts | 281° |
| 2026-04-19 06:31 | 30.17293 | 78.13488 | 31851 ft | 437 kts | 270° |
| 2026-04-19 06:31 | 30.17201 | 78.10001 | 31828 ft | 433 kts | 258° |
| 2026-04-19 06:32 | 30.15620 | 78.03318 | 31829 ft | 431 kts | 251° |
| 2026-04-19 06:32 | 30.14845 | 77.96518 | 31840 ft | 438 kts | 279° |
| 2026-04-19 06:33 | 30.15959 | 77.93214 | 31836 ft | 448 kts | 294° |
| 2026-04-19 06:33 | 30.17615 | 77.90148 | 31831 ft | 452 kts | 298° |
| 2026-04-19 06:33 | 30.21048 | 77.84050 | 31825 ft | 452 kts | 295° |
| 2026-04-19 06:34 | 30.24023 | 77.77724 | 31821 ft | 450 kts | 291° |
| 2026-04-19 06:34 | 30.26693 | 77.71188 | 31824 ft | 449 kts | 290° |
| 2026-04-19 06:35 | 30.29263 | 77.64593 | 31825 ft | 449 kts | 289° |
| 2026-04-19 06:35 | 30.31823 | 77.57997 | 31821 ft | 450 kts | 289° |
| 2026-04-19 06:36 | 30.34393 | 77.51403 | 31829 ft | 449 kts | 289° |
| 2026-04-19 06:36 | 30.36968 | 77.44803 | 31829 ft | 450 kts | 289° |
| 2026-04-19 06:37 | 30.39541 | 77.38202 | 31831 ft | 450 kts | 289° |
| 2026-04-19 06:37 | 30.42112 | 77.31595 | 31828 ft | 450 kts | 289° |
| 2026-04-19 06:38 | 30.44678 | 77.24986 | 31831 ft | 450 kts | 289° |
| 2026-04-19 06:38 | 30.47243 | 77.18367 | 31831 ft | 450 kts | 289° |
| 2026-04-19 06:39 | 30.49788 | 77.11790 | 31826 ft | 450 kts | 289° |
| 2026-04-19 06:39 | 30.52347 | 77.05161 | 31827 ft | 450 kts | 289° |
| 2026-04-19 06:40 | 30.54904 | 76.98526 | 31825 ft | 450 kts | 289° |
| 2026-04-19 06:40 | 30.57456 | 76.91894 | 31818 ft | 451 kts | 289° |
| 2026-04-19 06:41 | 30.60010 | 76.85244 | 31814 ft | 451 kts | 289° |
| 2026-04-19 06:41 | 30.62559 | 76.78594 | 31813 ft | 451 kts | 290° |
| 2026-04-19 06:42 | 30.65105 | 76.71938 | 31815 ft | 451 kts | 290° |
| 2026-04-19 06:42 | 30.67636 | 76.65310 | 31801 ft | 452 kts | 290° |
| 2026-04-19 06:43 | 30.70181 | 76.58635 | 31804 ft | 452 kts | 290° |
| 2026-04-19 06:43 | 30.72723 | 76.51953 | 31807 ft | 452 kts | 290° |
| 2026-04-19 06:44 | 30.75270 | 76.45247 | 31804 ft | 452 kts | 290° |
| 2026-04-19 06:44 | 30.77809 | 76.38547 | 31801 ft | 453 kts | 290° |
| 2026-04-19 06:45 | 30.80348 | 76.31837 | 31807 ft | 453 kts | 290° |
| 2026-04-19 06:45 | 30.82884 | 76.25121 | 31811 ft | 454 kts | 290° |
| 2026-04-19 06:46 | 30.85423 | 76.18386 | 31820 ft | 454 kts | 290° |
| 2026-04-19 06:46 | 30.87960 | 76.11642 | 31828 ft | 455 kts | 290° |
| 2026-04-19 06:47 | 30.90477 | 76.04937 | 31829 ft | 455 kts | 290° |
| 2026-04-19 06:47 | 30.93008 | 75.98185 | 31834 ft | 455 kts | 290° |
| 2026-04-19 06:48 | 30.95535 | 75.91429 | 31830 ft | 455 kts | 290° |
| 2026-04-19 06:48 | 30.98063 | 75.84659 | 31826 ft | 455 kts | 290° |
| 2026-04-19 06:49 | 31.00586 | 75.77888 | 31818 ft | 455 kts | 290° |
| 2026-04-19 06:49 | 31.03106 | 75.71115 | 31815 ft | 456 kts | 290° |
| 2026-04-19 06:50 | 31.05631 | 75.64316 | 31813 ft | 456 kts | 290° |
| 2026-04-19 06:50 | 31.08146 | 75.57533 | 31811 ft | 456 kts | 290° |
| 2026-04-19 06:51 | 31.10659 | 75.50740 | 31815 ft | 456 kts | 290° |
| 2026-04-19 06:51 | 31.12908 | 75.43893 | 31819 ft | 453 kts | 284° |
| 2026-04-19 06:52 | 31.14639 | 75.36806 | 31821 ft | 453 kts | 282° |
| 2026-04-19 06:52 | 31.16325 | 75.29725 | 31823 ft | 453 kts | 283° |
| 2026-04-19 06:53 | 31.18066 | 75.22694 | 31826 ft | 453 kts | 283° |
| 2026-04-19 06:53 | 31.19851 | 75.15617 | 31828 ft | 454 kts | 283° |
| 2026-04-19 06:54 | 31.21638 | 75.08543 | 31831 ft | 454 kts | 283° |
| 2026-04-19 06:54 | 31.23421 | 75.01456 | 31830 ft | 454 kts | 283° |
| 2026-04-19 06:55 | 31.25197 | 74.94375 | 31839 ft | 454 kts | 283° |
| 2026-04-19 06:55 | 31.26973 | 74.87276 | 31841 ft | 454 kts | 283° |
| 2026-04-19 06:56 | 31.28741 | 74.80186 | 31848 ft | 454 kts | 283° |
| 2026-04-19 06:56 | 31.30509 | 74.73083 | 31839 ft | 455 kts | 283° |
| 2026-04-19 06:57 | 31.32264 | 74.66023 | 31856 ft | 454 kts | 283° |
| 2026-04-19 06:57 | 31.34023 | 74.58920 | 31868 ft | 454 kts | 283° |
| 2026-04-19 06:58 | 31.35622 | 74.51783 | 31878 ft | 453 kts | 279° |
| 2026-04-19 06:58 | 31.36945 | 74.44580 | 31887 ft | 452 kts | 279° |
| 2026-04-19 06:59 | 31.38262 | 74.37380 | 31875 ft | 453 kts | 279° |
| 2026-04-19 06:59 | 31.39615 | 74.30175 | 31883 ft | 452 kts | 279° |
| 2026-04-19 07:00 | 31.40968 | 74.23025 | 31879 ft | 452 kts | 279° |
| 2026-04-19 07:00 | 31.42326 | 74.15834 | 31879 ft | 452 kts | 279° |
| 2026-04-19 07:01 | 31.43680 | 74.08635 | 31876 ft | 452 kts | 279° |
| 2026-04-19 07:01 | 31.44907 | 74.01423 | 31861 ft | 449 kts | 271° |
| 2026-04-19 07:02 | 31.44368 | 73.94193 | 31871 ft | 446 kts | 261° |
| 2026-04-19 07:02 | 31.43555 | 73.86981 | 31865 ft | 447 kts | 261° |
| 2026-04-19 07:03 | 31.42818 | 73.79757 | 31869 ft | 447 kts | 261° |
| 2026-04-19 07:03 | 31.42101 | 73.72568 | 31874 ft | 447 kts | 261° |
| 2026-04-19 07:04 | 31.41356 | 73.65339 | 31869 ft | 447 kts | 261° |
| 2026-04-19 07:04 | 31.40602 | 73.58117 | 31873 ft | 447 kts | 261° |
| 2026-04-19 07:05 | 31.39849 | 73.50905 | 31875 ft | 447 kts | 261° |
| 2026-04-19 07:05 | 31.39094 | 73.43683 | 31870 ft | 447 kts | 261° |
| 2026-04-19 07:06 | 31.38337 | 73.36473 | 31876 ft | 446 kts | 261° |
| 2026-04-19 07:06 | 31.37703 | 73.30470 | 31878 ft | 446 kts | 261° |
| 2026-04-19 07:07 | 31.36939 | 73.23267 | 31879 ft | 445 kts | 261° |
| 2026-04-19 07:07 | 31.36172 | 73.16071 | 31908 ft | 448 kts | 261° |
| 2026-04-19 07:08 | 31.35401 | 73.08860 | 31867 ft | 443 kts | 261° |
| 2026-04-19 07:08 | 31.34638 | 73.01761 | 31880 ft | 442 kts | 261° |
| 2026-04-19 07:09 | 31.33861 | 72.94618 | 31887 ft | 442 kts | 261° |
| 2026-04-19 07:09 | 31.33082 | 72.87478 | 31885 ft | 442 kts | 261° |
| 2026-04-19 07:10 | 31.32301 | 72.80336 | 31880 ft | 443 kts | 261° |
| 2026-04-19 07:10 | 31.31518 | 72.73188 | 31878 ft | 443 kts | 261° |
| 2026-04-19 07:11 | 31.30731 | 72.66034 | 31877 ft | 443 kts | 261° |
| 2026-04-19 07:11 | 31.29939 | 72.58880 | 31873 ft | 444 kts | 261° |
| 2026-04-19 07:12 | 31.29149 | 72.51765 | 31872 ft | 444 kts | 261° |
| 2026-04-19 07:12 | 31.28351 | 72.44607 | 31875 ft | 444 kts | 261° |
| 2026-04-19 07:13 | 31.27548 | 72.37441 | 31876 ft | 444 kts | 261° |
| 2026-04-19 07:13 | 31.27247 | 72.30238 | 31883 ft | 447 kts | 277° |
| 2026-04-19 07:14 | 31.28087 | 72.26733 | 31866 ft | 452 kts | 291° |
| 2026-04-19 07:14 | 31.29511 | 72.23452 | 31889 ft | 454 kts | 295° |
| 2026-04-19 07:14 | 31.32596 | 72.16978 | 31873 ft | 455 kts | 296° |
| 2026-04-19 07:15 | 31.35656 | 72.10548 | 31879 ft | 455 kts | 296° |
| 2026-04-19 07:16 | 31.40201 | 72.00776 | 31878 ft | 455 kts | 295° |
| 2026-04-19 07:16 | 31.43214 | 71.94245 | 31878 ft | 456 kts | 296° |
| 2026-04-19 07:17 | 31.46223 | 71.87711 | 31876 ft | 456 kts | 296° |
| 2026-04-19 07:17 | 31.49231 | 71.81174 | 31877 ft | 456 kts | 296° |
| 2026-04-19 07:18 | 31.52220 | 71.74669 | 31876 ft | 456 kts | 296° |
| 2026-04-19 07:18 | 31.55224 | 71.68122 | 31879 ft | 456 kts | 296° |
| 2026-04-19 07:19 | 31.58229 | 71.61560 | 31877 ft | 456 kts | 296° |
| 2026-04-19 07:19 | 31.61220 | 71.55010 | 31888 ft | 456 kts | 296° |
| 2026-04-19 07:20 | 31.64208 | 71.48457 | 31877 ft | 455 kts | 296° |
| 2026-04-19 07:20 | 31.67198 | 71.41895 | 31888 ft | 455 kts | 296° |
| 2026-04-19 07:21 | 31.70182 | 71.35336 | 31886 ft | 455 kts | 296° |
| 2026-04-19 07:21 | 31.73141 | 71.28820 | 31882 ft | 455 kts | 296° |
| 2026-04-19 07:22 | 31.76116 | 71.22259 | 31882 ft | 455 kts | 296° |
| 2026-04-19 07:22 | 31.79087 | 71.15693 | 31890 ft | 454 kts | 296° |
| 2026-04-19 07:23 | 31.82054 | 71.09127 | 31882 ft | 454 kts | 296° |
| 2026-04-19 07:23 | 31.85011 | 71.02572 | 31884 ft | 454 kts | 296° |
| 2026-04-19 07:24 | 31.87968 | 70.96007 | 31888 ft | 454 kts | 296° |
| 2026-04-19 07:24 | 31.90917 | 70.89449 | 31885 ft | 453 kts | 297° |
| 2026-04-19 07:25 | 31.94491 | 70.83337 | 31889 ft | 454 kts | 306° |
| 2026-04-19 07:25 | 31.98406 | 70.77556 | 31892 ft | 454 kts | 307° |
| 2026-04-19 07:26 | 32.02327 | 70.71710 | 31893 ft | 453 kts | 306° |
| 2026-04-19 07:26 | 32.06187 | 70.65835 | 31891 ft | 453 kts | 306° |
| 2026-04-19 07:27 | 32.10018 | 70.59954 | 31896 ft | 452 kts | 306° |
| 2026-04-19 07:27 | 32.13846 | 70.54066 | 31895 ft | 451 kts | 306° |
| 2026-04-19 07:28 | 32.17663 | 70.48189 | 31896 ft | 450 kts | 306° |
| 2026-04-19 07:28 | 32.21466 | 70.42328 | 31902 ft | 449 kts | 306° |
| 2026-04-19 07:29 | 32.25268 | 70.36459 | 31907 ft | 449 kts | 306° |
| 2026-04-19 07:29 | 32.29033 | 70.30638 | 31909 ft | 448 kts | 306° |
| 2026-04-19 07:30 | 32.32817 | 70.24782 | 31914 ft | 447 kts | 306° |
| 2026-04-19 07:30 | 32.36586 | 70.18937 | 31922 ft | 446 kts | 306° |
| 2026-04-19 07:31 | 32.40399 | 70.13141 | 31936 ft | 446 kts | 307° |
| 2026-04-19 07:31 | 32.44258 | 70.07392 | 31937 ft | 445 kts | 307° |
| 2026-04-19 07:32 | 32.48075 | 70.01693 | 31942 ft | 444 kts | 307° |
| 2026-04-19 07:32 | 32.51906 | 69.95947 | 31960 ft | 444 kts | 307° |
| 2026-04-19 07:33 | 32.55728 | 69.90200 | 31964 ft | 443 kts | 307° |
| 2026-04-19 07:33 | 32.59543 | 69.84452 | 31963 ft | 443 kts | 307° |
| 2026-04-19 07:34 | 32.63350 | 69.78708 | 31963 ft | 443 kts | 307° |
| 2026-04-19 07:34 | 32.67155 | 69.72959 | 31977 ft | 443 kts | 307° |
| 2026-04-19 07:35 | 32.70960 | 69.67202 | 31981 ft | 443 kts | 307° |
| 2026-04-19 07:35 | 32.74752 | 69.61455 | 31979 ft | 441 kts | 307° |
| 2026-04-19 07:36 | 32.78539 | 69.55708 | 31990 ft | 441 kts | 307° |
| 2026-04-19 07:36 | 32.82323 | 69.49958 | 31992 ft | 441 kts | 307° |
| 2026-04-19 07:37 | 32.86079 | 69.44240 | 31981 ft | 441 kts | 307° |
| 2026-04-19 07:37 | 32.89844 | 69.38484 | 31989 ft | 439 kts | 307° |
| 2026-04-19 07:38 | 32.93587 | 69.32739 | 31997 ft | 439 kts | 306° |
| 2026-04-19 07:38 | 32.97330 | 69.26990 | 32010 ft | 439 kts | 306° |
| 2026-04-19 07:39 | 33.01072 | 69.21237 | 32009 ft | 439 kts | 306° |
| 2026-04-19 07:39 | 33.04785 | 69.15520 | 32014 ft | 439 kts | 306° |
| 2026-04-19 07:40 | 33.08519 | 69.09762 | 32025 ft | 439 kts | 306° |
| 2026-04-19 07:40 | 33.12250 | 69.04000 | 32025 ft | 439 kts | 306° |
| 2026-04-19 07:41 | 33.15979 | 68.98233 | 32024 ft | 439 kts | 306° |
| 2026-04-19 07:41 | 33.19703 | 68.92465 | 32022 ft | 438 kts | 306° |
| 2026-04-19 07:42 | 33.23419 | 68.86703 | 32015 ft | 437 kts | 306° |
| 2026-04-19 07:42 | 33.27126 | 68.80943 | 32015 ft | 436 kts | 306° |
| 2026-04-19 07:43 | 33.30935 | 68.75354 | 32009 ft | 436 kts | 309° |
| 2026-04-19 07:43 | 33.34921 | 68.69860 | 32006 ft | 436 kts | 309° |
| 2026-04-19 07:44 | 33.38886 | 68.64366 | 32010 ft | 436 kts | 309° |
| 2026-04-19 07:44 | 33.42831 | 68.58841 | 32006 ft | 437 kts | 309° |
| 2026-04-19 07:45 | 33.46772 | 68.53302 | 32009 ft | 437 kts | 309° |
| 2026-04-19 07:45 | 33.50710 | 68.47760 | 32009 ft | 437 kts | 309° |
| 2026-04-19 07:46 | 33.54653 | 68.42202 | 32015 ft | 437 kts | 309° |
| 2026-04-19 07:46 | 33.58535 | 68.36586 | 32021 ft | 437 kts | 308° |
| 2026-04-19 07:47 | 33.62376 | 68.30921 | 32019 ft | 437 kts | 308° |
| 2026-04-19 07:47 | 33.66199 | 68.25287 | 32026 ft | 437 kts | 308° |
| 2026-04-19 07:48 | 33.70044 | 68.19632 | 32034 ft | 437 kts | 308° |
| 2026-04-19 07:48 | 33.73882 | 68.13985 | 32025 ft | 434 kts | 308° |
| 2026-04-19 07:49 | 33.77692 | 68.08371 | 32044 ft | 432 kts | 308° |
| 2026-04-19 07:49 | 33.81500 | 68.02748 | 32059 ft | 433 kts | 307° |
| 2026-04-19 07:50 | 33.85308 | 67.97118 | 32057 ft | 434 kts | 307° |
| 2026-04-19 07:50 | 33.89119 | 67.91476 | 32053 ft | 435 kts | 307° |
| 2026-04-19 07:51 | 33.92905 | 67.85858 | 32069 ft | 434 kts | 307° |
| 2026-04-19 07:51 | 33.96722 | 67.80174 | 32064 ft | 433 kts | 307° |
| 2026-04-19 07:52 | 34.00483 | 67.74567 | 32086 ft | 434 kts | 307° |
| 2026-04-19 07:52 | 34.04280 | 67.68901 | 32080 ft | 434 kts | 307° |
| 2026-04-19 07:53 | 34.08068 | 67.63243 | 32079 ft | 434 kts | 307° |
| 2026-04-19 07:53 | 34.11224 | 67.58524 | 32075 ft | 434 kts | 307° |
| 2026-04-19 07:54 | 34.15011 | 67.52847 | 32073 ft | 434 kts | 307° |
| 2026-04-19 07:54 | 34.18799 | 67.47164 | 32077 ft | 434 kts | 307° |
| 2026-04-19 07:55 | 34.22586 | 67.41477 | 32090 ft | 434 kts | 307° |
| 2026-04-19 07:55 | 34.24470 | 67.38643 | 32224 ft | 431 kts | 307° |
| 2026-04-19 07:55 | 34.26344 | 67.35822 | 32354 ft | 428 kts | 307° |
| 2026-04-19 07:55 | 34.28207 | 67.33018 | 32464 ft | 427 kts | 307° |
| 2026-04-19 07:56 | 34.30061 | 67.30224 | 32599 ft | 425 kts | 307° |
| 2026-04-19 07:56 | 34.31909 | 67.27435 | 32718 ft | 423 kts | 307° |
| 2026-04-19 07:56 | 34.33748 | 67.24656 | 32847 ft | 422 kts | 307° |
| 2026-04-19 07:56 | 34.35579 | 67.21888 | 32981 ft | 421 kts | 307° |
| 2026-04-19 07:57 | 34.37406 | 67.19124 | 33120 ft | 420 kts | 307° |
| 2026-04-19 07:57 | 34.39232 | 67.16359 | 33250 ft | 419 kts | 307° |
| 2026-04-19 07:57 | 34.41049 | 67.13606 | 33380 ft | 418 kts | 307° |
| 2026-04-19 07:57 | 34.42835 | 67.10898 | 33509 ft | 417 kts | 307° |
| 2026-04-19 07:58 | 34.44643 | 67.08155 | 33667 ft | 416 kts | 307° |
| 2026-04-19 07:58 | 34.46449 | 67.05412 | 33790 ft | 415 kts | 307° |
| 2026-04-19 07:58 | 34.48251 | 67.02673 | 33920 ft | 415 kts | 307° |
| 2026-04-19 07:58 | 34.50046 | 66.99943 | 34050 ft | 414 kts | 307° |
| 2026-04-19 07:59 | 34.51844 | 66.97207 | 34075 ft | 416 kts | 307° |
| 2026-04-19 07:59 | 34.55469 | 66.91682 | 34090 ft | 419 kts | 307° |
| 2026-04-19 08:00 | 34.59111 | 66.86121 | 34091 ft | 422 kts | 307° |
| 2026-04-19 08:00 | 34.62778 | 66.80517 | 34102 ft | 424 kts | 307° |
| 2026-04-19 08:01 | 34.66450 | 66.74894 | 34093 ft | 425 kts | 307° |
| 2026-04-19 08:01 | 34.70132 | 66.69249 | 34110 ft | 426 kts | 307° |
| 2026-04-19 08:02 | 34.73816 | 66.63589 | 34099 ft | 427 kts | 307° |
| 2026-04-19 08:02 | 34.77475 | 66.57961 | 34114 ft | 427 kts | 307° |
| 2026-04-19 08:03 | 34.81162 | 66.52280 | 34126 ft | 428 kts | 307° |
| 2026-04-19 08:03 | 34.84856 | 66.46578 | 34128 ft | 429 kts | 306° |
| 2026-04-19 08:04 | 34.88547 | 66.40871 | 34113 ft | 428 kts | 306° |
| 2026-04-19 08:04 | 34.92230 | 66.35169 | 34113 ft | 427 kts | 306° |
| 2026-04-19 08:05 | 34.95905 | 66.29469 | 34129 ft | 427 kts | 306° |
| 2026-04-19 08:05 | 34.99582 | 66.23757 | 34105 ft | 428 kts | 306° |
| 2026-04-19 08:06 | 35.03234 | 66.18075 | 34111 ft | 428 kts | 306° |
| 2026-04-19 08:06 | 35.06899 | 66.12362 | 34120 ft | 427 kts | 306° |
| 2026-04-19 08:07 | 35.10566 | 66.06639 | 34116 ft | 428 kts | 306° |
| 2026-04-19 08:07 | 35.14236 | 66.00900 | 34118 ft | 428 kts | 306° |
| 2026-04-19 08:08 | 35.17898 | 65.95167 | 34111 ft | 427 kts | 306° |
| 2026-04-19 08:08 | 35.21543 | 65.89449 | 34108 ft | 426 kts | 306° |
| 2026-04-19 08:09 | 35.25182 | 65.83729 | 34108 ft | 427 kts | 306° |
| 2026-04-19 08:09 | 35.28816 | 65.78011 | 34101 ft | 428 kts | 306° |
| 2026-04-19 08:10 | 35.32468 | 65.72252 | 34100 ft | 428 kts | 306° |
| 2026-04-19 08:10 | 35.36120 | 65.66486 | 34088 ft | 429 kts | 306° |
| 2026-04-19 08:11 | 35.39780 | 65.60697 | 34091 ft | 429 kts | 306° |
| 2026-04-19 08:11 | 35.43440 | 65.54899 | 34072 ft | 430 kts | 306° |
| 2026-04-19 08:12 | 35.47091 | 65.49105 | 34078 ft | 429 kts | 306° |
| 2026-04-19 08:12 | 35.50738 | 65.43308 | 34081 ft | 429 kts | 306° |
| 2026-04-19 08:13 | 35.54384 | 65.37503 | 34072 ft | 429 kts | 306° |
| 2026-04-19 08:13 | 35.58004 | 65.31729 | 34057 ft | 430 kts | 306° |
| 2026-04-19 08:14 | 35.61652 | 65.25901 | 34059 ft | 430 kts | 306° |
| 2026-04-19 08:14 | 35.67122 | 65.17144 | 34043 ft | 430 kts | 306° |
| 2026-04-19 08:15 | 35.70766 | 65.11298 | 34046 ft | 431 kts | 306° |
| 2026-04-19 08:15 | 35.74408 | 65.05446 | 34047 ft | 430 kts | 306° |
| 2026-04-19 08:16 | 35.78047 | 64.99588 | 34038 ft | 431 kts | 306° |
| 2026-04-19 08:16 | 35.81691 | 64.93711 | 34023 ft | 432 kts | 306° |
| 2026-04-19 08:17 | 35.85312 | 64.87863 | 34029 ft | 432 kts | 306° |
| 2026-04-19 08:17 | 35.88953 | 64.81972 | 34009 ft | 432 kts | 306° |
| 2026-04-19 08:18 | 35.92592 | 64.76075 | 34014 ft | 432 kts | 306° |
| 2026-04-19 08:18 | 35.96234 | 64.70160 | 34014 ft | 432 kts | 306° |
| 2026-04-19 08:19 | 35.99874 | 64.64241 | 33997 ft | 432 kts | 306° |
| 2026-04-19 08:19 | 36.03505 | 64.58325 | 33997 ft | 432 kts | 306° |
| 2026-04-19 08:20 | 36.07140 | 64.52393 | 33996 ft | 433 kts | 306° |
| 2026-04-19 08:20 | 36.10754 | 64.46485 | 33995 ft | 433 kts | 306° |
| 2026-04-19 08:21 | 36.14385 | 64.40539 | 33992 ft | 433 kts | 306° |
| 2026-04-19 08:21 | 36.18022 | 64.34573 | 33993 ft | 434 kts | 306° |
| 2026-04-19 08:22 | 36.21654 | 64.28605 | 33996 ft | 434 kts | 306° |
| 2026-04-19 08:22 | 36.25286 | 64.22627 | 34003 ft | 434 kts | 306° |
| 2026-04-19 08:23 | 36.28914 | 64.16643 | 33993 ft | 434 kts | 306° |
| 2026-04-19 08:23 | 36.32548 | 64.10640 | 33987 ft | 434 kts | 305° |
| 2026-04-19 08:24 | 36.36149 | 64.04681 | 33991 ft | 434 kts | 305° |
| 2026-04-19 08:24 | 36.39770 | 63.98678 | 33988 ft | 435 kts | 305° |
| 2026-04-19 08:25 | 36.43393 | 63.92662 | 33997 ft | 435 kts | 305° |
| 2026-04-19 08:25 | 36.47015 | 63.86637 | 33977 ft | 435 kts | 305° |
| 2026-04-19 08:26 | 36.50636 | 63.80602 | 33982 ft | 435 kts | 305° |
| 2026-04-19 08:26 | 36.54255 | 63.74560 | 33984 ft | 436 kts | 305° |
| 2026-04-19 08:27 | 36.57874 | 63.68508 | 33977 ft | 436 kts | 305° |
| 2026-04-19 08:27 | 36.61495 | 63.62440 | 33976 ft | 436 kts | 305° |
| 2026-04-19 08:28 | 36.65117 | 63.56361 | 33972 ft | 437 kts | 305° |
| 2026-04-19 08:28 | 36.68709 | 63.50320 | 33966 ft | 437 kts | 305° |
| 2026-04-19 08:29 | 36.72324 | 63.44231 | 33966 ft | 437 kts | 305° |
| 2026-04-19 08:29 | 36.75939 | 63.38131 | 33967 ft | 437 kts | 305° |
| 2026-04-19 08:30 | 36.79551 | 63.32025 | 33962 ft | 437 kts | 305° |
| 2026-04-19 08:30 | 36.83162 | 63.25909 | 33955 ft | 437 kts | 305° |
| 2026-04-19 08:31 | 36.86767 | 63.19792 | 33957 ft | 437 kts | 305° |
| 2026-04-19 08:31 | 36.90372 | 63.13665 | 33950 ft | 438 kts | 305° |
| 2026-04-19 08:32 | 36.93977 | 63.07526 | 33949 ft | 438 kts | 305° |
| 2026-04-19 08:32 | 36.97581 | 63.01378 | 33948 ft | 438 kts | 305° |
| 2026-04-19 08:33 | 37.01155 | 62.95270 | 33949 ft | 438 kts | 305° |
| 2026-04-19 08:33 | 37.04750 | 62.89114 | 33948 ft | 438 kts | 305° |
| 2026-04-19 08:34 | 37.08338 | 62.82960 | 33949 ft | 437 kts | 305° |
| 2026-04-19 08:34 | 37.11921 | 62.76802 | 33948 ft | 437 kts | 304° |
| 2026-04-19 08:35 | 37.15504 | 62.70633 | 33945 ft | 437 kts | 305° |
| 2026-04-19 08:35 | 37.19080 | 62.64466 | 33941 ft | 437 kts | 304° |
| 2026-04-19 08:36 | 37.22653 | 62.58291 | 33945 ft | 437 kts | 304° |
| 2026-04-19 08:36 | 37.26225 | 62.52109 | 33942 ft | 437 kts | 304° |
| 2026-04-19 08:37 | 37.29773 | 62.45954 | 33942 ft | 437 kts | 304° |
| 2026-04-19 08:37 | 37.33337 | 62.39763 | 33937 ft | 437 kts | 304° |
| 2026-04-19 08:38 | 37.36900 | 62.33560 | 33933 ft | 437 kts | 304° |
| 2026-04-19 08:38 | 37.39883 | 62.28358 | 33939 ft | 437 kts | 304° |
| 2026-04-19 08:39 | 37.43415 | 62.22190 | 33933 ft | 437 kts | 304° |
| 2026-04-19 08:39 | 37.46969 | 62.15971 | 33941 ft | 437 kts | 304° |
| 2026-04-19 08:40 | 37.50516 | 62.09753 | 33937 ft | 436 kts | 304° |
| 2026-04-19 08:40 | 37.54056 | 62.03539 | 33939 ft | 436 kts | 304° |
| 2026-04-19 08:41 | 37.57592 | 61.97321 | 33941 ft | 436 kts | 304° |
| 2026-04-19 08:41 | 37.61011 | 61.91076 | 33927 ft | 435 kts | 296° |
| 2026-04-19 08:42 | 37.62100 | 61.87530 | 33949 ft | 435 kts | 284° |
| 2026-04-19 08:42 | 37.62499 | 61.83748 | 33944 ft | 436 kts | 274° |
| 2026-04-19 08:42 | 37.62691 | 61.76079 | 33934 ft | 438 kts | 273° |
| 2026-04-19 08:43 | 37.62829 | 61.68399 | 33932 ft | 438 kts | 273° |
| 2026-04-19 08:43 | 37.63006 | 61.60710 | 33926 ft | 438 kts | 274° |
| 2026-04-19 08:44 | 37.63206 | 61.53031 | 33915 ft | 438 kts | 274° |
| 2026-04-19 08:44 | 37.63410 | 61.45351 | 33902 ft | 438 kts | 274° |
| 2026-04-19 08:45 | 37.63611 | 61.37676 | 33900 ft | 438 kts | 274° |
| 2026-04-19 08:45 | 37.63806 | 61.29998 | 33896 ft | 437 kts | 274° |
| 2026-04-19 08:46 | 37.63994 | 61.22369 | 33891 ft | 437 kts | 274° |
| 2026-04-19 08:46 | 37.64177 | 61.14703 | 33890 ft | 437 kts | 274° |
| 2026-04-19 08:47 | 37.64356 | 61.07040 | 33880 ft | 437 kts | 274° |
| 2026-04-19 08:47 | 37.64530 | 60.99374 | 33876 ft | 437 kts | 274° |
| 2026-04-19 08:48 | 37.64699 | 60.91708 | 33876 ft | 437 kts | 274° |
| 2026-04-19 08:48 | 37.64863 | 60.84047 | 33867 ft | 437 kts | 274° |
| 2026-04-19 08:49 | 37.65022 | 60.76376 | 33864 ft | 437 kts | 274° |
| 2026-04-19 08:49 | 37.65176 | 60.68702 | 33862 ft | 438 kts | 274° |
| 2026-04-19 08:50 | 37.65326 | 60.61013 | 33854 ft | 438 kts | 274° |
| 2026-04-19 08:50 | 37.65469 | 60.53376 | 33852 ft | 438 kts | 274° |
| 2026-04-19 08:51 | 37.65609 | 60.45673 | 33854 ft | 439 kts | 274° |
| 2026-04-19 08:51 | 37.65744 | 60.37974 | 33848 ft | 439 kts | 274° |
| 2026-04-19 08:52 | 37.65874 | 60.30264 | 33844 ft | 440 kts | 274° |
| 2026-04-19 08:52 | 37.65999 | 60.22541 | 33854 ft | 440 kts | 274° |
| 2026-04-19 08:53 | 37.66119 | 60.14818 | 33845 ft | 440 kts | 273° |
| 2026-04-19 08:53 | 37.66234 | 60.07087 | 33829 ft | 440 kts | 273° |
| 2026-04-19 08:54 | 37.66343 | 59.99423 | 33842 ft | 439 kts | 273° |
| 2026-04-19 08:54 | 37.66447 | 59.91719 | 33821 ft | 439 kts | 273° |
| 2026-04-19 08:55 | 37.66547 | 59.84016 | 33830 ft | 439 kts | 273° |
| 2026-04-19 08:55 | 37.66642 | 59.76316 | 33817 ft | 439 kts | 272° |
| 2026-04-19 08:56 | 37.66731 | 59.68624 | 33824 ft | 438 kts | 272° |
| 2026-04-19 08:56 | 37.66816 | 59.60930 | 33813 ft | 438 kts | 272° |
| 2026-04-19 08:57 | 37.66895 | 59.53260 | 33807 ft | 436 kts | 272° |
| 2026-04-19 08:57 | 37.66969 | 59.45604 | 33808 ft | 436 kts | 272° |
| 2026-04-19 08:58 | 37.67039 | 59.37965 | 33807 ft | 435 kts | 272° |
| 2026-04-19 08:58 | 37.67103 | 59.30328 | 33798 ft | 434 kts | 272° |
| 2026-04-19 08:59 | 37.67161 | 59.22768 | 33801 ft | 432 kts | 272° |
| 2026-04-19 08:59 | 37.67215 | 59.15195 | 33795 ft | 431 kts | 272° |
| 2026-04-19 09:00 | 37.67265 | 59.07639 | 33799 ft | 430 kts | 271° |
| 2026-04-19 09:00 | 37.67309 | 59.00115 | 33804 ft | 428 kts | 271° |
| 2026-04-19 09:01 | 37.67348 | 58.92607 | 33788 ft | 427 kts | 271° |
| 2026-04-19 09:01 | 37.67383 | 58.85108 | 33807 ft | 427 kts | 271° |
| 2026-04-19 09:02 | 37.67413 | 58.77617 | 33812 ft | 426 kts | 271° |
| 2026-04-19 09:02 | 37.67438 | 58.70152 | 33812 ft | 425 kts | 271° |
| 2026-04-19 09:03 | 37.67459 | 58.62730 | 33811 ft | 425 kts | 270° |
| 2026-04-19 09:03 | 37.67475 | 58.55273 | 33813 ft | 425 kts | 270° |
| 2026-04-19 09:04 | 37.67487 | 58.47797 | 33815 ft | 426 kts | 270° |
| 2026-04-19 09:04 | 37.67495 | 58.40323 | 33832 ft | 426 kts | 270° |
| 2026-04-19 09:05 | 37.67499 | 58.32855 | 33813 ft | 425 kts | 270° |
| 2026-04-19 09:05 | 37.67485 | 58.25403 | 33845 ft | 425 kts | 268° |
| 2026-04-19 09:06 | 37.67055 | 58.21708 | 33851 ft | 426 kts | 257° |
| 2026-04-19 09:06 | 37.66332 | 58.18086 | 33858 ft | 426 kts | 257° |
| 2026-04-19 09:06 | 37.64876 | 58.10822 | 33864 ft | 427 kts | 257° |
| 2026-04-19 09:07 | 37.63451 | 58.03552 | 33864 ft | 426 kts | 258° |
| 2026-04-19 09:07 | 37.62057 | 57.96354 | 33858 ft | 425 kts | 257° |
| 2026-04-19 09:08 | 37.60656 | 57.89112 | 33862 ft | 424 kts | 257° |
| 2026-04-19 09:08 | 37.59257 | 57.81903 | 33857 ft | 423 kts | 257° |
| 2026-04-19 09:09 | 37.57853 | 57.74699 | 33848 ft | 423 kts | 257° |
| 2026-04-19 09:09 | 37.56447 | 57.67510 | 33859 ft | 422 kts | 257° |
| 2026-04-19 09:10 | 37.55039 | 57.60335 | 33882 ft | 422 kts | 257° |
| 2026-04-19 09:10 | 37.53624 | 57.53148 | 33889 ft | 421 kts | 257° |
| 2026-04-19 09:11 | 37.52218 | 57.46028 | 33904 ft | 421 kts | 257° |
| 2026-04-19 09:11 | 37.50802 | 57.38870 | 33912 ft | 421 kts | 257° |
| 2026-04-19 09:12 | 37.49377 | 57.31703 | 33905 ft | 422 kts | 257° |
| 2026-04-19 09:12 | 37.48045 | 57.24502 | 33917 ft | 422 kts | 258° |
| 2026-04-19 09:13 | 37.46753 | 57.17292 | 33918 ft | 422 kts | 258° |
| 2026-04-19 09:13 | 37.45447 | 57.10078 | 33895 ft | 423 kts | 257° |
| 2026-04-19 09:14 | 37.44128 | 57.02866 | 33869 ft | 422 kts | 257° |
| 2026-04-19 09:14 | 37.43475 | 56.99302 | 33655 ft | 419 kts | 257° |
| 2026-04-19 09:14 | 37.42836 | 56.95829 | 33483 ft | 394 kts | 257° |
| 2026-04-19 09:15 | 37.42240 | 56.92588 | 33254 ft | 366 kts | 257° |
| 2026-04-19 09:15 | 37.41688 | 56.89580 | 33042 ft | 341 kts | 257° |
| 2026-04-19 09:15 | 37.40681 | 56.84130 | 32526 ft | 300 kts | 257° |
| 2026-04-19 09:16 | 37.40219 | 56.81635 | 32334 ft | 288 kts | 257° |
| 2026-04-19 09:16 | 37.39629 | 56.79250 | 32106 ft | 288 kts | 241° |
| 2026-04-19 09:16 | 37.38202 | 56.77473 | 31924 ft | 297 kts | 215° |
| 2026-04-19 09:16 | 37.36297 | 56.76409 | 31760 ft | 302 kts | 206° |
| 2026-04-19 09:17 | 37.34307 | 56.75511 | 31551 ft | 304 kts | 205° |
| 2026-04-19 09:17 | 37.32303 | 56.74642 | 31356 ft | 305 kts | 205° |
| 2026-04-19 09:17 | 37.30289 | 56.73778 | 31159 ft | 306 kts | 205° |
| 2026-04-19 09:17 | 37.28294 | 56.72923 | 30967 ft | 307 kts | 205° |
| 2026-04-19 09:18 | 37.26273 | 56.72056 | 30772 ft | 307 kts | 205° |
| 2026-04-19 09:18 | 37.24249 | 56.71185 | 30580 ft | 308 kts | 205° |
| 2026-04-19 09:18 | 37.22224 | 56.70313 | 30399 ft | 308 kts | 205° |
| 2026-04-19 09:18 | 37.20191 | 56.69436 | 30211 ft | 309 kts | 205° |
| 2026-04-19 09:19 | 37.18166 | 56.68562 | 30013 ft | 307 kts | 205° |
| 2026-04-19 09:19 | 37.16158 | 56.67696 | 29799 ft | 303 kts | 205° |
| 2026-04-19 09:19 | 37.14172 | 56.66842 | 29587 ft | 301 kts | 205° |
| 2026-04-19 09:19 | 37.12198 | 56.65995 | 29344 ft | 299 kts | 205° |
| 2026-04-19 09:20 | 37.10236 | 56.65154 | 29132 ft | 297 kts | 205° |
| 2026-04-19 09:20 | 37.08282 | 56.64304 | 28825 ft | 297 kts | 208° |
| 2026-04-19 09:20 | 37.06627 | 56.62874 | 28486 ft | 286 kts | 230° |
| 2026-04-19 09:20 | 37.05329 | 56.60999 | 28196 ft | 285 kts | 233° |
| 2026-04-19 09:21 | 37.04101 | 56.59063 | 27875 ft | 283 kts | 234° |
| 2026-04-19 09:21 | 37.02898 | 56.57136 | 27564 ft | 278 kts | 234° |
| 2026-04-19 09:21 | 37.01716 | 56.55238 | 27248 ft | 274 kts | 234° |
| 2026-04-19 09:21 | 37.00637 | 56.53302 | 26899 ft | 268 kts | 249° |
| 2026-04-19 09:22 | 37.00408 | 56.51038 | 26615 ft | 264 kts | 273° |
| 2026-04-19 09:22 | 37.00620 | 56.48735 | 26347 ft | 271 kts | 275° |
| 2026-04-19 09:22 | 37.00905 | 56.46384 | 26065 ft | 275 kts | 275° |
| 2026-04-19 09:22 | 37.01212 | 56.44018 | 25773 ft | 275 kts | 276° |
| 2026-04-19 09:23 | 37.01521 | 56.41673 | 25475 ft | 271 kts | 276° |
| 2026-04-19 09:23 | 37.01830 | 56.39368 | 25185 ft | 268 kts | 276° |
| 2026-04-19 09:23 | 37.02140 | 56.37072 | 24901 ft | 267 kts | 276° |
| 2026-04-19 09:23 | 37.02456 | 56.34783 | 24625 ft | 267 kts | 276° |
| 2026-04-19 09:24 | 37.02667 | 56.33269 | 24443 ft | 267 kts | 276° |
| 2026-04-19 09:24 | 37.02985 | 56.30987 | 24160 ft | 266 kts | 276° |
| 2026-04-19 09:24 | 37.03307 | 56.28700 | 23894 ft | 266 kts | 276° |
| 2026-04-19 09:24 | 37.03629 | 56.26422 | 23629 ft | 266 kts | 276° |
| 2026-04-19 09:25 | 37.03952 | 56.24145 | 23346 ft | 266 kts | 276° |
| 2026-04-19 09:25 | 37.04277 | 56.21870 | 23022 ft | 264 kts | 276° |
| 2026-04-19 09:25 | 37.04602 | 56.19625 | 22704 ft | 260 kts | 276° |
| 2026-04-19 09:25 | 37.04928 | 56.17416 | 22386 ft | 257 kts | 276° |
| 2026-04-19 09:26 | 37.05253 | 56.15224 | 22068 ft | 255 kts | 276° |
| 2026-04-19 09:26 | 37.05426 | 56.13042 | 21761 ft | 250 kts | 267° |
| 2026-04-19 09:26 | 37.05413 | 56.10875 | 21459 ft | 248 kts | 265° |
| 2026-04-19 09:26 | 37.05372 | 56.08722 | 21163 ft | 247 kts | 265° |
| 2026-04-19 09:27 | 37.05326 | 56.06577 | 20862 ft | 246 kts | 265° |
| 2026-04-19 09:27 | 37.05279 | 56.04441 | 20568 ft | 245 kts | 265° |
| 2026-04-19 09:27 | 37.05231 | 56.02313 | 20272 ft | 244 kts | 265° |
| 2026-04-19 09:27 | 37.05185 | 56.00187 | 19986 ft | 244 kts | 265° |
| 2026-04-19 09:28 | 37.05140 | 55.98072 | 19701 ft | 243 kts | 265° |
| 2026-04-19 09:28 | 37.05095 | 55.95956 | 19418 ft | 242 kts | 265° |
| 2026-04-19 09:28 | 37.05056 | 55.93895 | 19136 ft | 238 kts | 265° |
| 2026-04-19 09:28 | 37.05019 | 55.91837 | 18853 ft | 236 kts | 265° |
| 2026-04-19 09:29 | 37.04983 | 55.89788 | 18578 ft | 235 kts | 265° |
| 2026-04-19 09:29 | 37.04950 | 55.87742 | 18303 ft | 235 kts | 265° |
| 2026-04-19 09:29 | 37.04919 | 55.85700 | 18005 ft | 234 kts | 265° |
| 2026-04-19 09:29 | 37.04890 | 55.83683 | 17824 ft | 229 kts | 265° |
| 2026-04-19 09:30 | 37.04862 | 55.81691 | 17668 ft | 232 kts | 265° |
| 2026-04-19 09:30 | 37.04831 | 55.79652 | 17517 ft | 236 kts | 265° |
| 2026-04-19 09:30 | 37.04797 | 55.77600 | 17362 ft | 235 kts | 265° |
| 2026-04-19 09:30 | 37.04765 | 55.75560 | 17196 ft | 233 kts | 265° |
| 2026-04-19 09:31 | 37.04733 | 55.73535 | 17048 ft | 232 kts | 265° |
| 2026-04-19 09:31 | 37.04701 | 55.71523 | 16863 ft | 231 kts | 265° |
| 2026-04-19 09:31 | 37.04667 | 55.69504 | 16743 ft | 234 kts | 265° |
| 2026-04-19 09:31 | 37.04631 | 55.67452 | 16576 ft | 235 kts | 265° |
| 2026-04-19 09:32 | 37.04595 | 55.65446 | 16433 ft | 232 kts | 265° |
| 2026-04-19 09:32 | 37.04557 | 55.63426 | 16286 ft | 232 kts | 265° |
| 2026-04-19 09:32 | 37.04518 | 55.61412 | 16117 ft | 231 kts | 265° |
| 2026-04-19 09:32 | 37.04476 | 55.59407 | 15981 ft | 231 kts | 265° |
| 2026-04-19 09:33 | 37.04434 | 55.57390 | 15817 ft | 232 kts | 265° |
| 2026-04-19 09:33 | 37.04391 | 55.55369 | 15673 ft | 233 kts | 265° |
| 2026-04-19 09:33 | 37.04350 | 55.53340 | 15518 ft | 234 kts | 265° |
| 2026-04-19 09:33 | 37.04312 | 55.51300 | 15374 ft | 235 kts | 265° |
| 2026-04-19 09:34 | 37.04275 | 55.49257 | 15228 ft | 234 kts | 265° |
| 2026-04-19 09:34 | 37.04234 | 55.47238 | 15076 ft | 231 kts | 265° |
| 2026-04-19 09:34 | 37.04188 | 55.45235 | 14894 ft | 229 kts | 265° |
| 2026-04-19 09:34 | 37.04136 | 55.43230 | 14604 ft | 232 kts | 265° |
| 2026-04-19 09:35 | 37.04086 | 55.41199 | 14337 ft | 235 kts | 265° |
| 2026-04-19 09:35 | 37.04034 | 55.39161 | 14016 ft | 232 kts | 265° |
| 2026-04-19 09:35 | 37.03982 | 55.37165 | 13762 ft | 229 kts | 264° |
| 2026-04-19 09:35 | 37.03935 | 55.35156 | 13475 ft | 232 kts | 265° |
| 2026-04-19 09:36 | 37.03876 | 55.33145 | 13149 ft | 230 kts | 263° |
| 2026-04-19 09:36 | 37.03787 | 55.31156 | 12865 ft | 229 kts | 265° |
| 2026-04-19 09:36 | 37.03719 | 55.29155 | 12549 ft | 230 kts | 265° |
| 2026-04-19 09:36 | 37.03653 | 55.27150 | 12264 ft | 232 kts | 265° |
| 2026-04-19 09:37 | 37.03578 | 55.25132 | 11937 ft | 231 kts | 265° |
| 2026-04-19 09:37 | 37.03501 | 55.23133 | 11633 ft | 229 kts | 265° |
| 2026-04-19 09:37 | 37.03429 | 55.21175 | 11330 ft | 227 kts | 265° |
| 2026-04-19 09:37 | 37.03354 | 55.19210 | 11069 ft | 226 kts | 264° |
| 2026-04-19 09:38 | 37.03274 | 55.17242 | 10749 ft | 225 kts | 265° |
| 2026-04-19 09:38 | 37.03190 | 55.15282 | 10476 ft | 225 kts | 265° |
| 2026-04-19 09:38 | 37.03097 | 55.13305 | 10206 ft | 230 kts | 265° |
| 2026-04-19 09:38 | 37.03000 | 55.11306 | 9911 ft | 230 kts | 265° |
| 2026-04-19 09:39 | 37.02903 | 55.09312 | 9631 ft | 230 kts | 264° |
| 2026-04-19 09:39 | 37.02418 | 55.07439 | 9265 ft | 230 kts | 232° |
| 2026-04-19 09:39 | 37.01343 | 55.05988 | 8998 ft | 226 kts | 226° |
| 2026-04-19 09:39 | 37.00248 | 55.04575 | 8718 ft | 226 kts | 226° |
| 2026-04-19 09:40 | 36.99160 | 55.03169 | 8404 ft | 225 kts | 225° |
| 2026-04-19 09:40 | 36.98074 | 55.01765 | 8134 ft | 225 kts | 225° |
| 2026-04-19 09:40 | 36.96987 | 55.00350 | 7809 ft | 226 kts | 226° |
| 2026-04-19 09:40 | 36.95911 | 54.98935 | 7537 ft | 224 kts | 226° |
| 2026-04-19 09:41 | 36.94848 | 54.97527 | 7264 ft | 226 kts | 226° |
| 2026-04-19 09:41 | 36.93772 | 54.96088 | 6983 ft | 227 kts | 226° |
| 2026-04-19 09:41 | 36.92700 | 54.94628 | 6706 ft | 228 kts | 228° |
| 2026-04-19 09:41 | 36.91772 | 54.93027 | 6383 ft | 226 kts | 234° |
| 2026-04-19 09:42 | 36.90919 | 54.91404 | 6215 ft | 222 kts | 236° |
| 2026-04-19 09:42 | 36.90069 | 54.89766 | 6037 ft | 226 kts | 234° |
| 2026-04-19 09:42 | 36.89215 | 54.88093 | 5808 ft | 229 kts | 239° |
| 2026-04-19 09:42 | 36.88901 | 54.86175 | 5597 ft | 229 kts | 275° |
| 2026-04-19 09:43 | 36.89080 | 54.84210 | 5462 ft | 230 kts | 275° |
| 2026-04-19 09:43 | 36.89266 | 54.82199 | 5289 ft | 235 kts | 275° |
| 2026-04-19 09:43 | 36.89456 | 54.80160 | 5087 ft | 236 kts | 275° |
| 2026-04-19 09:43 | 36.89642 | 54.78123 | 4878 ft | 234 kts | 275° |
| 2026-04-19 09:44 | 36.89818 | 54.76131 | 4688 ft | 227 kts | 275° |
| 2026-04-19 09:44 | 36.89709 | 54.74206 | 4497 ft | 223 kts | 248° |
| 2026-04-19 09:44 | 36.89093 | 54.72429 | 4339 ft | 225 kts | 245° |
| 2026-04-19 09:44 | 36.88464 | 54.70627 | 4137 ft | 226 kts | 245° |
| 2026-04-19 09:45 | 36.87833 | 54.68847 | 3898 ft | 220 kts | 245° |
| 2026-04-19 09:45 | 36.87141 | 54.67229 | 3668 ft | 205 kts | 228° |
| 2026-04-19 09:45 | 36.85964 | 54.66403 | 3482 ft | 194 kts | 190° |
| 2026-04-19 09:45 | 36.84718 | 54.65803 | 3256 ft | 197 kts | 223° |
| 2026-04-19 09:46 | 36.84163 | 54.64338 | 3076 ft | 192 kts | 270° |
| 2026-04-19 09:46 | 36.84352 | 54.62751 | 3390 ft | 182 kts | 280° |
| 2026-04-19 09:46 | 36.84577 | 54.61190 | 3782 ft | 188 kts | 280° |
| 2026-04-19 09:46 | 36.84813 | 54.59468 | 3498 ft | 203 kts | 276° |
| 2026-04-19 09:47 | 36.84498 | 54.57817 | 3256 ft | 196 kts | 241° |
| 2026-04-19 09:47 | 36.83847 | 54.56334 | 3025 ft | 194 kts | 242° |
| 2026-04-19 09:47 | 36.83482 | 54.54746 | 2741 ft | 192 kts | 277° |
| 2026-04-19 09:47 | 36.84029 | 54.53326 | 2547 ft | 177 kts | 306° |
| 2026-04-19 09:48 | 36.84650 | 54.52039 | 2219 ft | 170 kts | 295° |
| 2026-04-19 09:48 | 36.84652 | 54.52035 | 2219 ft | 170 kts | 296° |
| 2026-04-19 09:50 | 36.84686 | 54.51950 | 2203 ft | 169 kts | 296° |
| 2026-04-19 09:50 | 36.85151 | 54.50660 | 2076 ft | 156 kts | 290° |
| 2026-04-19 09:51 | 36.85530 | 54.49415 | 2198 ft | 160 kts | 289° |
| 2026-04-19 09:51 | 36.85963 | 54.48067 | 2147 ft | 174 kts | 295° |
| 2026-04-19 09:51 | 36.86569 | 54.46761 | 1876 ft | 169 kts | 298° |
| 2026-04-19 09:51 | 36.87151 | 54.45525 | 1518 ft | 165 kts | 300° |
| 2026-04-19 09:52 | 36.87777 | 54.44317 | 1019 ft | 166 kts | 304° |
| 2026-04-19 09:52 | 36.88542 | 54.43231 | 594 ft | 164 kts | 310° |
| 2026-04-19 09:52 | 36.89290 | 54.42226 | 295 ft | 150 kts | 313° |
| 2026-04-19 09:52 | 36.90018 | 54.41330 | 87 ft | 146 kts | 311° |
| 2026-04-19 09:53 | 36.90638 | 54.40512 | -26 ft | 89 kts | 313° |
| 2026-04-19 09:53 | 36.90915 | 54.40155 | -53 ft | 6 kts | 313° |
| 2026-04-19 09:53 | 36.90918 | 54.40151 | -43 ft | 1 kts | 312° |